Terminal Aerodrome Forecast
Issued by NWS New Orleans/Baton Rouge, LA

Home | Current Version | Previous Version | Text Only | Print | Product List | Glossary On
Versions: 1 2 3 4 5 6 7 8 9 10 11 12 13 14 15 16 17 18 19 20 21 22 23 24 25
000
FTUS44 KLIX 272300
TAFNEW
TAF
KNEW 272322Z 2800/2824 12009KT P6SM SCT060 BKN110
     FM280400 13005KT P6SM SCT250
     FM281400 10007KT P6SM SCT035
     FM281800 11010KT P6SM VCTS BKN040CB=

USA.gov is the U.S. government's official web portal to all federal, state and local government web resources and services.